Atlanta, Georgia
Traffic Map
Current Weather Conditions
Atlanta, Georgia
Scattered Clouds
Scattered Clouds
26°
Feels Like: 27°
Wind Chill: 26° Ceiling: Unl
Heat Index: 27° Visibility: 10mi
Dew Point: 14° Wind: 5mph
Humidity: 48% Direction: 140° (SE)
Pressure: 29.99in Gusts: 0mph
Raw Report DataKATL 012352Z 14004KT 10SM FEW200 SCT250 26/14 A2999 RMK AO2 SLP146 T02610144 10300 20261 51005
Traffic Incident Summary
Active as of:
Severity:
Category:
InformationThere was an issue retrieving the traffic information for this location. Please try a different location or try again shortly.
Advertisements
Track Severe Weather on mobile